createdAt,value
2018-12-17T00:00:42.633Z,1.82
2018-12-17T00:01:42.774Z,1.89
2018-12-17T00:02:42.917Z,1.83
2018-12-17T00:03:43.062Z,1.76
2018-12-17T00:04:43.207Z,1.75
2018-12-17T00:05:43.350Z,1.80
2018-12-17T00:06:43.491Z,1.89
2018-12-17T00:07:43.635Z,1.85
2018-12-17T00:08:43.778Z,1.87
2018-12-17T00:09:43.923Z,1.76
2018-12-17T00:10:44.068Z,1.73
2018-12-17T00:11:44.278Z,1.91
2018-12-17T00:12:44.353Z,1.91
2018-12-17T00:13:44.499Z,1.83
2018-12-17T00:14:44.640Z,1.90
2018-12-17T00:15:44.786Z,1.87
2018-12-17T00:16:44.927Z,1.83
2018-12-17T00:17:45.068Z,1.78
2018-12-17T00:18:45.215Z,1.79
2018-12-17T00:19:45.357Z,1.87
2018-12-17T00:20:45.501Z,1.76
2018-12-17T00:21:45.648Z,1.83
2018-12-17T00:22:45.788Z,1.87
2018-12-17T00:23:45.935Z,1.93
2018-12-17T00:24:46.080Z,1.93
2018-12-17T00:25:46.221Z,2.01
2018-12-17T00:26:46.367Z,1.89
2018-12-17T00:27:46.513Z,1.98
2018-12-17T00:28:46.656Z,1.97
2018-12-17T00:29:46.800Z,1.97
2018-12-17T00:30:46.946Z,1.94
2018-12-17T00:31:47.090Z,1.98
2018-12-17T00:32:47.233Z,1.99
2018-12-17T00:33:47.379Z,2.06
2018-12-17T00:34:47.522Z,2.08
2018-12-17T00:35:47.668Z,2.06
2018-12-17T00:36:47.810Z,1.97
2018-12-17T00:37:47.957Z,2.06
2018-12-17T00:38:48.099Z,2.16
2018-12-17T00:39:48.244Z,2.16
2018-12-17T00:40:48.390Z,2.13
2018-12-17T00:41:48.531Z,2.22
2018-12-17T00:42:48.677Z,2.20
2018-12-17T00:43:48.824Z,2.15
2018-12-17T00:44:48.971Z,2.19
2018-12-17T00:45:49.109Z,2.17
2018-12-17T00:46:49.253Z,2.20
2018-12-17T00:47:49.399Z,2.17
2018-12-17T00:48:49.539Z,2.22
2018-12-17T00:49:49.684Z,2.13
2018-12-17T00:50:49.829Z,2.16
2018-12-17T00:51:49.971Z,2.20
2018-12-17T00:52:50.118Z,2.17
2018-12-17T00:53:50.260Z,2.10
2018-12-17T00:54:50.405Z,2.01
2018-12-17T00:55:50.551Z,1.91
2018-12-17T00:56:50.694Z,2.01
2018-12-17T00:57:50.838Z,1.91
2018-12-17T00:58:50.982Z,1.87
2018-12-17T00:59:51.123Z,1.83
2018-12-17T01:00:51.267Z,1.89
2018-12-17T01:01:51.414Z,1.87
2018-12-17T01:02:51.557Z,1.87
2018-12-17T01:03:51.699Z,1.97
2018-12-17T01:04:51.842Z,1.94
2018-12-17T01:05:51.987Z,1.85
2018-12-17T01:06:52.130Z,1.89
2018-12-17T01:07:52.274Z,1.76
2018-12-17T01:08:52.421Z,1.87
2018-12-17T01:09:52.564Z,1.76
2018-12-17T01:10:52.709Z,1.85
2018-12-17T01:11:52.849Z,1.89
2018-12-17T01:12:52.995Z,1.71
2018-12-17T01:13:53.139Z,1.85
2018-12-17T01:14:53.283Z,1.83
2018-12-17T01:15:53.426Z,1.73
2018-12-17T01:16:53.571Z,1.80
2018-12-17T01:17:53.733Z,1.73
2018-12-17T01:18:53.858Z,1.64
2018-12-17T01:19:54.004Z,1.71
2018-12-17T01:20:54.146Z,1.71
2018-12-17T01:21:54.290Z,1.73
2018-12-17T01:22:54.431Z,1.78
2018-12-17T01:23:54.576Z,1.62
2018-12-17T01:24:54.721Z,1.69
2018-12-17T01:25:54.865Z,1.73
2018-12-17T01:26:55.008Z,1.75
2018-12-17T01:27:55.155Z,1.80
2018-12-17T01:28:55.292Z,1.79
2018-12-17T01:29:55.434Z,1.73
2018-12-17T01:30:55.580Z,1.87
2018-12-17T01:31:55.722Z,1.89
2018-12-17T01:32:55.866Z,1.85
2018-12-17T01:33:56.010Z,1.87
2018-12-17T01:34:56.153Z,1.82
2018-12-17T01:35:56.297Z,1.83
2018-12-17T01:36:56.442Z,1.85
2018-12-17T01:37:56.586Z,1.89
2018-12-17T01:38:56.730Z,1.91
2018-12-17T01:39:56.869Z,1.89
2018-12-17T01:40:57.015Z,1.90
2018-12-17T01:41:57.157Z,1.90
2018-12-17T01:42:57.301Z,1.87
2018-12-17T01:43:57.447Z,1.83
2018-12-17T01:44:57.590Z,1.87
2018-12-17T01:45:57.736Z,1.87
2018-12-17T01:46:57.875Z,1.99
2018-12-17T01:47:58.020Z,1.97
2018-12-17T01:48:58.163Z,1.99
2018-12-17T01:49:58.306Z,2.04
2018-12-17T01:50:58.452Z,1.98
2018-12-17T01:51:58.596Z,1.97
2018-12-17T01:52:58.738Z,2.08
2018-12-17T01:53:58.925Z,1.98
2018-12-17T01:54:59.026Z,1.97
2018-12-17T01:55:59.171Z,2.04
2018-12-17T01:56:59.312Z,2.01
2018-12-17T01:57:59.458Z,1.99
2018-12-17T01:58:59.601Z,2.02
2018-12-17T01:59:59.749Z,2.02
2018-12-17T02:00:59.889Z,2.12
2018-12-17T02:02:00.033Z,1.98
2018-12-17T02:03:00.175Z,2.06
2018-12-17T02:04:00.320Z,2.16
2018-12-17T02:05:00.464Z,2.17
2018-12-17T02:06:00.609Z,2.22
2018-12-17T02:07:00.752Z,2.17
2018-12-17T02:08:00.895Z,2.06
2018-12-17T02:09:01.041Z,2.16
2018-12-17T02:10:01.188Z,2.19
2018-12-17T02:11:01.332Z,2.20
2018-12-17T02:12:01.476Z,2.19
2018-12-17T02:13:01.617Z,2.06
2018-12-17T02:14:01.764Z,2.09
2018-12-17T02:15:01.905Z,2.04
2018-12-17T02:16:02.060Z,2.10
2018-12-17T02:17:02.197Z,2.06
2018-12-17T02:18:02.341Z,2.08
2018-12-17T02:19:02.487Z,2.16
2018-12-17T02:20:02.628Z,2.12
2018-12-17T02:21:02.772Z,2.16
2018-12-17T02:22:02.918Z,2.17
2018-12-17T02:23:03.064Z,2.17
2018-12-17T02:24:03.207Z,2.12
2018-12-17T02:25:03.348Z,2.10
2018-12-17T02:26:03.490Z,2.01
2018-12-17T02:27:03.634Z,2.08
2018-12-17T02:28:03.778Z,2.01
2018-12-17T02:29:03.923Z,2.02
2018-12-17T02:30:04.072Z,1.98
2018-12-17T02:31:04.212Z,1.85
2018-12-17T02:32:04.371Z,1.82
2018-12-17T02:33:04.494Z,1.80
2018-12-17T02:34:04.639Z,1.76
2018-12-17T02:35:04.786Z,1.68
2018-12-17T02:36:04.925Z,1.76
2018-12-17T02:37:05.070Z,1.73
2018-12-17T02:38:05.215Z,1.80
2018-12-17T02:39:05.366Z,1.78
2018-12-17T02:40:05.505Z,1.75
2018-12-17T02:41:05.650Z,1.72
2018-12-17T02:42:05.791Z,1.65
2018-12-17T02:43:05.935Z,1.65
2018-12-17T02:44:06.079Z,1.64
2018-12-17T02:45:06.223Z,1.80
2018-12-17T02:46:06.368Z,1.87
2018-12-17T02:47:06.513Z,1.83
2018-12-17T02:48:06.659Z,1.94
2018-12-17T02:49:06.804Z,1.97
2018-12-17T02:50:06.947Z,1.98
2018-12-17T02:51:07.088Z,1.97
2018-12-17T02:52:07.232Z,1.89
2018-12-17T02:53:07.379Z,1.98
2018-12-17T02:54:07.520Z,2.01
2018-12-17T02:55:07.665Z,2.10
2018-12-17T02:56:07.806Z,1.91
2018-12-17T02:57:07.949Z,2.04
2018-12-17T02:58:08.096Z,1.98
2018-12-17T02:59:08.237Z,2.10
2018-12-17T03:00:08.381Z,2.08
2018-12-17T03:01:08.524Z,2.04
2018-12-17T03:02:08.684Z,2.06
2018-12-17T03:03:08.812Z,2.06
2018-12-17T03:04:08.957Z,2.02
2018-12-17T03:05:09.133Z,2.10
2018-12-17T03:06:09.244Z,2.16
2018-12-17T03:07:09.388Z,2.20
2018-12-17T03:08:09.530Z,2.22
2018-12-17T03:09:09.680Z,2.15
2018-12-17T03:10:09.822Z,2.22
2018-12-17T03:11:09.965Z,2.17
2018-12-17T03:12:10.106Z,2.35
2018-12-17T03:13:10.251Z,2.37
2018-12-17T03:14:10.395Z,2.46
2018-12-17T03:15:10.542Z,2.44
2018-12-17T03:16:10.684Z,2.37
2018-12-17T03:17:10.829Z,2.40
2018-12-17T03:18:10.971Z,2.44
2018-12-17T03:19:11.115Z,2.46
2018-12-17T03:20:11.268Z,2.53
2018-12-17T03:21:11.408Z,2.59
2018-12-17T03:22:11.554Z,2.52
2018-12-17T03:23:11.697Z,2.53
2018-12-17T03:24:11.841Z,2.52
2018-12-17T03:25:11.986Z,2.53
2018-12-17T03:26:12.131Z,2.44
2018-12-17T03:27:12.276Z,2.46
2018-12-17T03:28:12.423Z,2.41
2018-12-17T03:29:12.564Z,2.44
2018-12-17T03:30:12.710Z,2.45
2018-12-17T03:31:12.857Z,2.28
2018-12-17T03:32:13.004Z,2.46
2018-12-17T03:33:13.146Z,2.48
2018-12-17T03:34:13.292Z,2.46
2018-12-17T03:35:13.435Z,2.45
2018-12-17T03:36:13.578Z,2.40
2018-12-17T03:37:13.725Z,2.45
2018-12-17T03:38:13.867Z,2.44
2018-12-17T03:39:14.014Z,2.46
2018-12-17T03:40:14.159Z,2.58
2018-12-17T03:41:14.309Z,2.44
2018-12-17T03:42:14.521Z,2.41
2018-12-17T03:43:14.592Z,2.49
2018-12-17T03:44:14.737Z,2.51
2018-12-17T03:45:14.882Z,2.48
2018-12-17T03:46:15.027Z,2.41
2018-12-17T03:47:15.170Z,2.41
2018-12-17T03:48:15.312Z,2.22
2018-12-17T03:49:15.459Z,2.33
2018-12-17T03:50:15.605Z,2.40
2018-12-17T03:51:15.751Z,2.26
2018-12-17T03:52:15.893Z,2.22
2018-12-17T03:53:16.039Z,2.27
2018-12-17T03:54:16.184Z,2.27
2018-12-17T03:55:16.327Z,2.19
2018-12-17T03:56:16.473Z,2.22
2018-12-17T03:57:16.613Z,2.22
2018-12-17T03:58:16.756Z,2.26
2018-12-17T03:59:16.903Z,2.19
2018-12-17T04:00:17.055Z,2.20
2018-12-17T04:01:17.191Z,2.30
2018-12-17T04:02:17.335Z,2.26
2018-12-17T04:03:17.480Z,2.34
2018-12-17T04:04:17.627Z,2.33
2018-12-17T04:05:17.772Z,2.28
2018-12-17T04:06:17.919Z,2.41
2018-12-17T04:07:18.059Z,2.40
2018-12-17T04:08:18.201Z,2.48
2018-12-17T04:09:18.347Z,2.44
2018-12-17T04:10:18.493Z,2.38
2018-12-17T04:11:18.638Z,2.52
2018-12-17T04:12:18.777Z,2.56
2018-12-17T04:13:18.920Z,2.49
2018-12-17T04:14:19.066Z,2.59
2018-12-17T04:15:19.212Z,2.51
2018-12-17T04:16:19.354Z,2.51
2018-12-17T04:17:19.496Z,2.58
2018-12-17T04:18:19.641Z,2.63
2018-12-17T04:19:19.786Z,2.64
2018-12-17T04:20:19.930Z,2.64
2018-12-17T04:21:20.076Z,2.76
2018-12-17T04:22:20.220Z,2.73
2018-12-17T04:23:20.363Z,2.73
2018-12-17T04:24:20.508Z,2.67
2018-12-17T04:25:20.653Z,2.64
2018-12-17T04:26:20.797Z,2.64
2018-12-17T04:27:20.942Z,2.64
2018-12-17T04:28:21.086Z,2.56
2018-12-17T04:29:21.232Z,2.49
2018-12-17T04:30:21.373Z,2.46
2018-12-17T04:31:21.518Z,2.45
2018-12-17T04:32:21.662Z,2.38
2018-12-17T04:33:21.898Z,2.53
2018-12-17T04:34:21.951Z,2.58
2018-12-17T04:35:22.097Z,2.46
2018-12-17T04:36:22.244Z,2.53
2018-12-17T04:37:22.389Z,2.51
2018-12-17T04:38:22.533Z,2.58
2018-12-17T04:39:22.678Z,2.55
2018-12-17T04:40:22.823Z,2.58
2018-12-17T04:41:22.969Z,2.70
2018-12-17T04:42:23.112Z,2.48
2018-12-17T04:43:23.258Z,2.58
2018-12-17T04:44:23.401Z,2.48
2018-12-17T04:45:23.548Z,2.64
2018-12-17T04:46:23.690Z,2.61
2018-12-17T04:47:23.852Z,2.67
2018-12-17T04:48:23.971Z,2.70
2018-12-17T04:49:24.121Z,2.59
2018-12-17T04:50:24.259Z,2.63
2018-12-17T04:51:24.403Z,2.67
2018-12-17T04:52:24.549Z,2.64
2018-12-17T04:53:24.699Z,2.66
2018-12-17T04:54:24.841Z,2.61
2018-12-17T04:55:24.982Z,2.67
2018-12-17T04:56:25.128Z,2.61
2018-12-17T04:57:25.273Z,2.59
2018-12-17T04:58:25.419Z,2.67
2018-12-17T04:59:25.562Z,2.64
2018-12-17T05:00:25.705Z,2.74
2018-12-17T05:01:25.854Z,2.74
2018-12-17T05:02:25.994Z,2.71
2018-12-17T05:03:26.141Z,2.70
2018-12-17T05:04:26.287Z,2.67
2018-12-17T05:05:26.432Z,2.56
2018-12-17T05:06:26.576Z,2.56
2018-12-17T05:07:26.721Z,2.64
2018-12-17T05:08:26.866Z,2.59
2018-12-17T05:09:27.012Z,2.73
2018-12-17T05:10:27.157Z,2.70
2018-12-17T05:11:27.302Z,2.63
2018-12-17T05:12:27.447Z,2.66
2018-12-17T05:13:27.594Z,2.71
2018-12-17T05:14:27.736Z,2.64
2018-12-17T05:15:27.881Z,2.74
2018-12-17T05:16:28.034Z,2.66
2018-12-17T05:17:28.170Z,2.66
2018-12-17T05:18:28.316Z,2.61
2018-12-17T05:19:28.461Z,2.67
2018-12-17T05:20:28.605Z,2.79
2018-12-17T05:21:28.755Z,2.74
2018-12-17T05:22:28.898Z,2.73
2018-12-17T05:23:29.041Z,2.58
2018-12-17T05:24:29.185Z,2.71
2018-12-17T05:25:29.328Z,2.74
2018-12-17T05:26:29.477Z,2.85
2018-12-17T05:27:29.617Z,2.81
2018-12-17T05:28:29.764Z,2.69
2018-12-17T05:29:29.906Z,2.73
2018-12-17T05:30:30.053Z,2.66
2018-12-17T05:31:30.193Z,2.66
2018-12-17T05:32:31.407Z,2.67
2018-12-17T05:33:30.484Z,2.70
2018-12-17T05:34:30.630Z,2.70
2018-12-17T05:35:30.777Z,2.64
2018-12-17T05:36:30.957Z,2.56
2018-12-17T05:37:31.053Z,2.66
2018-12-17T05:38:31.199Z,2.56
2018-12-17T05:39:31.343Z,2.52
2018-12-17T05:40:31.487Z,2.52
2018-12-17T05:41:31.635Z,2.51
2018-12-17T05:42:31.776Z,2.55
2018-12-17T05:43:31.925Z,2.53
2018-12-17T05:44:32.073Z,2.49
2018-12-17T05:45:32.216Z,2.56
2018-12-17T05:46:32.363Z,2.51
2018-12-17T05:47:32.505Z,2.46
2018-12-17T05:48:32.655Z,2.44
2018-12-17T05:49:32.798Z,2.52
2018-12-17T05:50:32.940Z,2.69
2018-12-17T05:51:33.084Z,2.64
2018-12-17T05:52:33.228Z,2.66
2018-12-17T05:53:33.370Z,2.70
2018-12-17T05:54:33.514Z,2.64
2018-12-17T05:55:33.660Z,2.76
2018-12-17T05:56:33.803Z,2.74
2018-12-17T05:57:33.951Z,2.71
2018-12-17T05:58:34.093Z,2.64
2018-12-17T05:59:34.240Z,2.77
2018-12-17T06:00:34.380Z,2.87
2018-12-17T06:01:34.525Z,2.85
2018-12-17T06:02:34.668Z,2.91
2018-12-17T06:03:36.087Z,2.82
2018-12-17T06:04:34.961Z,2.84
2018-12-17T06:05:35.105Z,2.89
2018-12-17T06:06:35.247Z,2.82
2018-12-17T06:07:35.393Z,2.79
2018-12-17T06:08:35.535Z,2.79
2018-12-17T06:09:35.682Z,2.73
2018-12-17T06:10:35.826Z,2.71
2018-12-17T06:11:35.973Z,2.71
2018-12-17T06:12:36.117Z,2.77
2018-12-17T06:13:36.262Z,2.77
2018-12-17T06:14:36.404Z,2.73
2018-12-17T06:15:36.547Z,2.64
2018-12-17T06:16:36.693Z,2.61
2018-12-17T06:17:36.835Z,2.66
2018-12-17T06:18:36.981Z,2.67
2018-12-17T06:19:37.126Z,2.59
2018-12-17T06:20:37.269Z,2.66
2018-12-17T06:21:37.419Z,2.66
2018-12-17T06:22:37.560Z,2.63
2018-12-17T06:23:37.746Z,2.69
2018-12-17T06:24:37.853Z,2.64
2018-12-17T06:25:37.999Z,2.71
2018-12-17T06:26:38.142Z,2.67
2018-12-17T06:27:38.662Z,2.64
2018-12-17T06:28:38.433Z,2.59
2018-12-17T06:29:38.579Z,2.70
2018-12-17T06:30:38.723Z,2.59
2018-12-17T06:31:38.867Z,2.52
2018-12-17T06:32:39.015Z,2.51
2018-12-17T06:33:39.157Z,2.53
2018-12-17T06:34:39.301Z,2.53
2018-12-17T06:35:39.450Z,2.55
2018-12-17T06:36:39.593Z,2.61
2018-12-17T06:37:39.736Z,2.53
2018-12-17T06:38:39.882Z,2.56
2018-12-17T06:39:40.032Z,2.55
2018-12-17T06:40:40.172Z,2.55
2018-12-17T06:41:40.319Z,2.69
2018-12-17T06:42:40.466Z,2.64
2018-12-17T06:43:40.609Z,2.61
2018-12-17T06:44:40.755Z,2.67
2018-12-17T06:45:40.896Z,2.71
2018-12-17T06:46:41.042Z,2.71
2018-12-17T06:47:41.187Z,2.73
2018-12-17T06:48:41.332Z,2.77
2018-12-17T06:49:41.484Z,2.71
2018-12-17T06:50:41.622Z,2.73
2018-12-17T06:51:41.767Z,2.82
2018-12-17T06:52:41.914Z,2.81
2018-12-17T06:53:42.056Z,2.84
2018-12-17T06:54:42.201Z,2.85
2018-12-17T06:55:42.350Z,2.92
2018-12-17T06:56:42.493Z,2.89
2018-12-17T06:57:42.640Z,2.89
2018-12-17T06:58:42.785Z,2.92
2018-12-17T06:59:43.063Z,2.95
2018-12-17T07:00:43.074Z,3.02
2018-12-17T07:01:43.217Z,3.00
2018-12-17T07:02:43.360Z,3.06
2018-12-17T07:03:43.505Z,3.05
2018-12-17T07:04:43.649Z,3.06
2018-12-17T07:05:43.794Z,3.03
2018-12-17T07:06:43.939Z,3.03
2018-12-17T07:07:44.082Z,3.06
2018-12-17T07:08:44.228Z,3.18
2018-12-17T07:09:44.372Z,3.18
2018-12-17T07:10:44.518Z,3.20
2018-12-17T07:11:44.662Z,3.28
2018-12-17T07:12:44.809Z,3.27
2018-12-17T07:13:44.952Z,3.10
2018-12-17T07:14:45.100Z,3.05
2018-12-17T07:15:45.243Z,3.07
2018-12-17T07:16:45.387Z,3.12
2018-12-17T07:17:45.531Z,3.06
2018-12-17T07:18:45.678Z,3.03
2018-12-17T07:19:45.823Z,2.89
2018-12-17T07:20:45.967Z,2.95
2018-12-17T07:21:46.111Z,3.05
2018-12-17T07:22:46.256Z,2.94
2018-12-17T07:23:46.402Z,2.89
2018-12-17T07:24:46.545Z,2.87
2018-12-17T07:25:46.692Z,2.82
2018-12-17T07:26:46.838Z,2.88
2018-12-17T07:27:46.983Z,2.98
2018-12-17T07:28:47.130Z,2.88
2018-12-17T07:29:49.968Z,2.89
2018-12-17T07:30:47.418Z,2.91
2018-12-17T07:31:47.579Z,2.98
2018-12-17T07:32:47.708Z,2.95
2018-12-17T07:33:47.853Z,3.02
2018-12-17T07:34:48.000Z,3.03
2018-12-17T07:35:48.146Z,3.06
2018-12-17T07:36:48.291Z,3.09
2018-12-17T07:37:48.436Z,2.97
2018-12-17T07:38:48.582Z,2.98
2018-12-17T07:39:48.727Z,2.92
2018-12-17T07:40:48.877Z,2.98
2018-12-17T07:41:49.019Z,2.89
2018-12-17T07:42:49.164Z,2.92
2018-12-17T07:43:49.310Z,3.00
2018-12-17T07:44:49.454Z,3.07
2018-12-17T07:45:49.601Z,3.06
2018-12-17T07:46:49.748Z,3.07
2018-12-17T07:47:49.893Z,3.09
2018-12-17T07:48:50.038Z,3.12
2018-12-17T07:49:50.182Z,3.15
2018-12-17T07:50:50.326Z,3.23
2018-12-17T07:51:50.472Z,3.28
2018-12-17T07:52:50.619Z,3.30
2018-12-17T07:53:50.764Z,3.28
2018-12-17T07:54:50.910Z,3.28
2018-12-17T07:55:51.055Z,3.34
2018-12-17T07:56:51.198Z,3.40
2018-12-17T07:57:51.344Z,3.34
2018-12-17T07:58:51.491Z,3.33
2018-12-17T07:59:56.740Z,3.33
2018-12-17T08:00:51.780Z,3.28
2018-12-17T08:01:51.929Z,3.28
2018-12-17T08:02:52.074Z,3.47
2018-12-17T08:03:52.219Z,3.40
2018-12-17T08:04:52.367Z,3.36
2018-12-17T08:05:52.509Z,3.40
2018-12-17T08:06:52.656Z,3.44
2018-12-17T08:07:52.803Z,3.44
2018-12-17T08:08:52.948Z,3.52
2018-12-17T08:09:53.094Z,3.50
2018-12-17T08:10:53.238Z,3.46
2018-12-17T08:11:53.385Z,3.52
2018-12-17T08:12:53.532Z,3.47
2018-12-17T08:13:53.674Z,3.57
2018-12-17T08:14:53.835Z,3.54
2018-12-17T08:15:53.993Z,3.57
2018-12-17T08:16:54.113Z,3.47
2018-12-17T08:17:54.261Z,3.54
2018-12-17T08:18:54.410Z,3.47
2018-12-17T08:19:54.555Z,3.61
2018-12-17T08:20:54.702Z,3.44
2018-12-17T08:21:54.847Z,3.43
2018-12-17T08:22:54.993Z,3.54
2018-12-17T08:23:55.142Z,3.57
2018-12-17T08:24:55.287Z,3.57
2018-12-17T08:25:55.434Z,3.62
2018-12-17T08:26:55.579Z,3.68
2018-12-17T08:27:55.724Z,3.80
2018-12-17T08:28:55.869Z,3.83
2018-12-17T08:29:56.015Z,3.88
2018-12-17T08:30:56.163Z,3.92
2018-12-17T08:31:56.307Z,3.89
2018-12-17T08:32:56.454Z,3.96
2018-12-17T08:33:56.599Z,4.03
2018-12-17T08:34:56.744Z,4.06
2018-12-17T08:35:56.891Z,3.98
2018-12-17T08:36:57.037Z,4.12
2018-12-17T08:37:57.182Z,3.97
2018-12-17T08:38:57.330Z,3.94
2018-12-17T08:39:57.475Z,4.10
2018-12-17T08:40:57.619Z,4.14
2018-12-17T08:41:57.766Z,4.19
2018-12-17T08:42:57.911Z,4.03
2018-12-17T08:43:58.058Z,4.12
2018-12-17T08:44:58.204Z,4.28
2018-12-17T08:45:58.349Z,4.25
2018-12-17T08:46:58.494Z,4.36
2018-12-17T08:47:58.642Z,4.40
2018-12-17T08:48:58.787Z,4.42
2018-12-17T08:49:58.932Z,4.40
2018-12-17T08:50:59.078Z,4.46
2018-12-17T08:51:59.223Z,4.52
2018-12-17T08:52:59.439Z,4.58
2018-12-17T08:53:59.519Z,4.52
2018-12-17T08:54:59.665Z,4.59
2018-12-17T08:55:59.813Z,4.58
2018-12-17T08:56:59.956Z,4.54
2018-12-17T08:58:00.103Z,4.58
2018-12-17T08:59:00.250Z,4.52
2018-12-17T09:00:00.397Z,4.54
2018-12-17T09:01:00.545Z,4.58
2018-12-17T09:02:00.692Z,4.51
2018-12-17T09:03:00.840Z,4.42
2018-12-17T09:04:00.986Z,4.37
2018-12-17T09:05:01.133Z,4.36
2018-12-17T09:06:01.279Z,4.37
2018-12-17T09:07:01.426Z,4.42
2018-12-17T09:08:01.575Z,4.43
2018-12-17T09:09:01.720Z,4.54
2018-12-17T09:10:01.868Z,4.40
2018-12-17T09:11:02.530Z,4.52
2018-12-17T09:12:02.160Z,4.36
2018-12-17T09:13:02.304Z,4.43
2018-12-17T09:14:02.450Z,4.40
2018-12-17T09:15:02.598Z,4.34
2018-12-17T09:16:02.745Z,4.15
2018-12-17T09:17:02.892Z,4.36
2018-12-17T09:18:03.039Z,4.43
2018-12-17T09:19:03.203Z,4.42
2018-12-17T09:20:03.331Z,4.39
2018-12-17T09:21:03.477Z,4.47
2018-12-17T09:22:03.622Z,4.50
2018-12-17T09:23:03.770Z,4.51
2018-12-17T09:24:03.918Z,4.54
2018-12-17T09:25:04.067Z,4.54
2018-12-17T09:26:04.205Z,4.55
2018-12-17T09:27:04.352Z,4.51
2018-12-17T09:28:04.500Z,4.59
2018-12-17T09:29:04.646Z,4.39
2018-12-17T09:30:04.794Z,4.44
2018-12-17T09:31:04.941Z,4.51
2018-12-17T09:32:05.086Z,4.52
2018-12-17T09:33:05.233Z,4.58
2018-12-17T09:34:05.383Z,4.58
2018-12-17T09:35:05.528Z,4.62
2018-12-17T09:36:05.672Z,4.76
2018-12-17T09:37:05.820Z,4.67
2018-12-17T09:38:05.966Z,4.65
2018-12-17T09:39:06.113Z,4.67
2018-12-17T09:40:06.259Z,4.64
2018-12-17T09:41:06.406Z,4.65
2018-12-17T09:42:06.552Z,4.59
2018-12-17T09:43:06.698Z,4.57
2018-12-17T09:44:06.846Z,4.65
2018-12-17T09:45:06.996Z,4.72
2018-12-17T09:46:07.139Z,4.72
2018-12-17T09:47:07.286Z,4.67
2018-12-17T09:48:07.433Z,4.59
2018-12-17T09:49:07.581Z,4.65
2018-12-17T09:50:07.727Z,4.65
2018-12-17T09:51:07.876Z,4.62
2018-12-17T09:52:08.020Z,4.59
2018-12-17T09:53:08.165Z,4.59
2018-12-17T09:54:08.309Z,4.70
2018-12-17T09:55:08.460Z,4.62
2018-12-17T09:56:08.606Z,4.79
2018-12-17T09:57:08.750Z,4.72
2018-12-17T09:58:08.896Z,4.73
2018-12-17T09:59:09.043Z,4.75
2018-12-17T10:00:09.190Z,4.86
2018-12-17T10:01:09.335Z,4.83
2018-12-17T10:02:09.483Z,4.73
2018-12-17T10:03:09.627Z,4.72
2018-12-17T10:04:09.774Z,4.77
2018-12-17T10:05:09.919Z,4.69
2018-12-17T10:06:10.067Z,4.84
2018-12-17T10:07:10.214Z,4.70
2018-12-17T10:08:10.358Z,4.70
2018-12-17T10:09:10.504Z,4.77
2018-12-17T10:10:10.653Z,4.70
2018-12-17T10:11:10.797Z,4.72
2018-12-17T10:12:10.946Z,4.70
2018-12-17T10:13:11.100Z,4.69
2018-12-17T10:14:11.237Z,4.75
2018-12-17T10:15:11.382Z,4.72
2018-12-17T10:16:11.529Z,4.64
2018-12-17T10:17:11.682Z,4.67
2018-12-17T10:18:11.823Z,4.73
2018-12-17T10:19:11.971Z,4.79
2018-12-17T10:20:12.120Z,4.77
2018-12-17T10:21:12.264Z,4.77
2018-12-17T10:22:12.410Z,4.79
2018-12-17T10:23:12.557Z,4.76
2018-12-17T10:24:12.706Z,4.75
2018-12-17T10:25:12.850Z,4.67
2018-12-17T10:26:12.997Z,4.65
2018-12-17T10:27:13.146Z,4.58
2018-12-17T10:28:13.337Z,4.51
2018-12-17T10:29:13.436Z,4.57
2018-12-17T10:30:13.583Z,4.55
2018-12-17T10:31:13.730Z,4.55
2018-12-17T10:32:13.876Z,4.54
2018-12-17T10:33:14.024Z,4.51
2018-12-17T10:34:14.169Z,4.54
2018-12-17T10:35:14.315Z,4.65
2018-12-17T10:36:14.459Z,4.52
2018-12-17T10:37:14.612Z,4.67
2018-12-17T10:38:14.758Z,4.65
2018-12-17T10:39:15.123Z,4.64
2018-12-17T10:40:15.050Z,4.73
2018-12-17T10:41:15.194Z,4.73
2018-12-17T10:42:15.342Z,4.69
2018-12-17T10:43:15.490Z,4.75
2018-12-17T10:44:15.635Z,4.76
2018-12-17T10:45:15.779Z,4.77
2018-12-17T10:46:15.927Z,4.64
2018-12-17T10:47:16.073Z,4.73
2018-12-17T10:48:16.223Z,4.67
2018-12-17T10:49:16.366Z,4.59
2018-12-17T10:50:16.511Z,4.76
2018-12-17T10:51:16.656Z,4.67
2018-12-17T10:52:16.802Z,4.80
2018-12-17T10:53:16.948Z,4.80
2018-12-17T10:54:17.094Z,4.70
2018-12-17T10:55:17.240Z,4.64
2018-12-17T10:56:17.386Z,4.69
2018-12-17T10:57:17.532Z,4.57
2018-12-17T10:58:17.681Z,4.57
2018-12-17T10:59:17.825Z,4.67
2018-12-17T11:00:17.976Z,4.62
2018-12-17T11:01:18.120Z,4.64
2018-12-17T11:02:18.261Z,4.67
2018-12-17T11:03:18.409Z,4.64
2018-12-17T11:04:18.552Z,4.62
2018-12-17T11:05:18.698Z,4.64
2018-12-17T11:06:18.847Z,4.62
2018-12-17T11:07:18.993Z,4.70
2018-12-17T11:08:19.143Z,4.64
2018-12-17T11:09:19.285Z,4.76
2018-12-17T11:10:19.430Z,4.75
2018-12-17T11:11:19.575Z,4.72
2018-12-17T11:12:19.721Z,4.80
2018-12-17T11:13:19.870Z,4.67
2018-12-17T11:14:20.017Z,4.75
2018-12-17T11:15:20.159Z,4.88
2018-12-17T11:16:20.306Z,4.84
2018-12-17T11:17:20.450Z,4.95
2018-12-17T11:18:20.592Z,4.95
2018-12-17T11:19:20.741Z,4.96
2018-12-17T11:20:20.887Z,5.07
2018-12-17T11:21:21.033Z,5.07
2018-12-17T11:22:21.179Z,5.16
2018-12-17T11:23:21.328Z,5.22
2018-12-17T11:24:21.470Z,5.22
2018-12-17T11:25:21.617Z,5.22
2018-12-17T11:26:21.764Z,5.20
2018-12-17T11:27:21.908Z,5.12
2018-12-17T11:28:22.058Z,5.17
2018-12-17T11:29:22.203Z,5.20
2018-12-17T11:30:22.350Z,5.30
2018-12-17T11:31:22.496Z,5.23
2018-12-17T11:32:22.642Z,5.14
2018-12-17T11:33:22.789Z,5.09
2018-12-17T11:34:22.935Z,4.96
2018-12-17T11:35:23.082Z,4.89
2018-12-17T11:36:23.228Z,4.98
2018-12-17T11:37:23.374Z,4.89
2018-12-17T11:38:23.521Z,4.77
2018-12-17T11:39:23.667Z,4.83
2018-12-17T11:40:23.811Z,4.83
2018-12-17T11:41:23.967Z,4.80
2018-12-17T11:42:24.129Z,4.86
2018-12-17T11:43:24.251Z,4.95
2018-12-17T11:44:24.399Z,4.96
2018-12-17T11:45:24.542Z,4.91
2018-12-17T11:46:24.689Z,4.83
2018-12-17T11:47:24.836Z,4.89
2018-12-17T11:48:24.985Z,4.91
2018-12-17T11:49:25.132Z,4.89
2018-12-17T11:50:25.282Z,4.91
2018-12-17T11:51:25.427Z,4.98
2018-12-17T11:52:25.573Z,5.07
2018-12-17T11:53:25.723Z,5.05
2018-12-17T11:54:25.867Z,4.92
2018-12-17T11:55:26.011Z,4.84
2018-12-17T11:56:26.156Z,4.83
2018-12-17T11:57:26.304Z,4.83
2018-12-17T11:58:26.450Z,4.89
2018-12-17T11:59:26.595Z,4.95
2018-12-17T12:00:26.743Z,4.92
2018-12-17T12:01:26.888Z,4.92
2018-12-17T12:02:27.034Z,4.79
2018-12-17T12:03:27.178Z,4.89
2018-12-17T12:04:27.326Z,4.91
2018-12-17T12:05:27.476Z,4.86
2018-12-17T12:06:27.616Z,4.89
2018-12-17T12:07:27.762Z,4.92
2018-12-17T12:08:27.977Z,4.89
2018-12-17T12:09:28.054Z,4.95
2018-12-17T12:10:28.201Z,4.88
2018-12-17T12:11:28.346Z,4.99
2018-12-17T12:12:28.496Z,5.05
2018-12-17T12:13:28.643Z,5.12
2018-12-17T12:14:28.787Z,5.13
2018-12-17T12:15:28.931Z,5.09
2018-12-17T12:16:29.076Z,5.12
2018-12-17T12:17:29.223Z,5.01
2018-12-17T12:18:29.370Z,4.89
2018-12-17T12:19:29.518Z,4.83
2018-12-17T12:20:29.660Z,4.77
2018-12-17T12:21:29.807Z,4.72
2018-12-17T12:22:29.951Z,4.65
2018-12-17T12:23:30.105Z,4.76
2018-12-17T12:24:30.243Z,4.91
2018-12-17T12:25:30.394Z,4.75
2018-12-17T12:26:30.539Z,4.69
2018-12-17T12:27:30.684Z,4.73
2018-12-17T12:28:30.830Z,4.76
2018-12-17T12:29:30.976Z,4.76
2018-12-17T12:30:31.122Z,4.72
2018-12-17T12:31:31.270Z,4.72
2018-12-17T12:32:31.417Z,4.72
2018-12-17T12:33:31.564Z,4.67
2018-12-17T12:34:31.709Z,4.76
2018-12-17T12:35:31.854Z,4.75
2018-12-17T12:36:32.003Z,4.83
2018-12-17T12:37:32.148Z,4.80
2018-12-17T12:38:32.293Z,4.83
2018-12-17T12:39:32.439Z,4.73
2018-12-17T12:40:33.235Z,4.79
2018-12-17T12:41:32.732Z,4.75
2018-12-17T12:42:32.876Z,4.88
2018-12-17T12:43:33.024Z,4.83
2018-12-17T12:44:33.170Z,4.77
2018-12-17T12:45:33.314Z,4.86
2018-12-17T12:46:33.462Z,4.77
2018-12-17T12:47:33.609Z,4.84
2018-12-17T12:48:33.753Z,4.89
2018-12-17T12:49:33.899Z,4.88
2018-12-17T12:50:34.047Z,4.89
2018-12-17T12:51:34.193Z,4.98
2018-12-17T12:52:34.340Z,5.02
2018-12-17T12:53:34.485Z,5.04
2018-12-17T12:54:34.632Z,5.02
2018-12-17T12:55:34.778Z,5.01
2018-12-17T12:56:34.924Z,4.95
2018-12-17T12:57:35.071Z,4.92
2018-12-17T12:58:35.218Z,5.01
2018-12-17T12:59:35.368Z,4.96
2018-12-17T13:00:35.515Z,5.10
2018-12-17T13:01:35.660Z,5.05
2018-12-17T13:02:35.802Z,5.05
2018-12-17T13:03:35.961Z,4.92
2018-12-17T13:04:36.105Z,4.95
2018-12-17T13:05:36.253Z,5.04
2018-12-17T13:06:36.400Z,4.99
2018-12-17T13:07:36.545Z,4.96
2018-12-17T13:08:36.693Z,4.92
2018-12-17T13:09:36.836Z,5.09
2018-12-17T13:10:36.986Z,5.25
2018-12-17T13:11:37.132Z,5.13
2018-12-17T13:12:37.279Z,5.12
2018-12-17T13:13:37.421Z,5.25
2018-12-17T13:14:37.574Z,5.23
2018-12-17T13:15:37.733Z,5.23
2018-12-17T13:16:37.890Z,5.17
2018-12-17T13:17:38.036Z,5.20
2018-12-17T13:18:38.190Z,5.27
2018-12-17T13:19:38.350Z,5.19
2018-12-17T13:20:38.494Z,5.16